createdAt,value
2017-11-22T00:00:12.148Z,65.2
2017-11-22T00:00:28.283Z,65.1
2017-11-22T00:00:44.452Z,64.7
2017-11-22T00:01:00.674Z,64.8
2017-11-22T00:01:16.732Z,64.8
2017-11-22T00:01:32.851Z,64.5
2017-11-22T00:01:49.059Z,64.9
2017-11-22T00:02:05.199Z,65
2017-11-22T00:02:21.382Z,65.1
2017-11-22T00:02:37.514Z,64.9
2017-11-22T00:02:56.852Z,64.7
2017-11-22T00:03:13.061Z,64.9
2017-11-22T00:03:29.131Z,64.7
2017-11-22T00:03:45.259Z,64.9
2017-11-22T00:04:01.496Z,64.8
2017-11-22T00:04:17.612Z,64.9
2017-11-22T00:04:33.776Z,64.7
2017-11-22T00:04:49.904Z,64.9
2017-11-22T00:05:06.098Z,64.8
2017-11-22T00:05:22.304Z,64.8
2017-11-22T00:05:38.409Z,64.5
2017-11-22T00:05:54.538Z,64.6
2017-11-22T00:06:10.715Z,64.9
2017-11-22T00:06:26.896Z,64.8
2017-11-22T00:06:42.973Z,64.7
2017-11-22T00:06:59.162Z,64.6
2017-11-22T00:07:16.944Z,64.8
2017-11-22T00:07:33.070Z,65.1
2017-11-22T00:07:49.184Z,65
2017-11-22T00:08:05.327Z,65.4
2017-11-22T00:08:21.559Z,65.3
2017-11-22T00:08:37.658Z,65.3
2017-11-22T00:08:53.838Z,65.2
2017-11-22T00:09:10.057Z,65.3
2017-11-22T00:09:26.203Z,65.4
2017-11-22T00:09:42.460Z,65.4
2017-11-22T00:09:58.463Z,65.2
2017-11-22T00:10:14.668Z,64.9
2017-11-22T00:10:30.739Z,64.9
2017-11-22T00:10:46.888Z,64.8
2017-11-22T00:11:03.097Z,64.9
2017-11-22T00:11:19.307Z,65
2017-11-22T00:11:35.358Z,64.8
2017-11-22T00:11:51.518Z,64.9
2017-11-22T00:12:07.677Z,64.9
2017-11-22T00:12:23.872Z,64.8
2017-11-22T00:12:39.983Z,64.7
2017-11-22T00:12:56.140Z,64.9
2017-11-22T00:13:12.271Z,65
2017-11-22T00:13:30.112Z,65.6
2017-11-22T00:13:46.241Z,65
2017-11-22T00:14:02.481Z,65.2
2017-11-22T00:14:18.490Z,65.2
2017-11-22T00:14:34.708Z,65.3
2017-11-22T00:14:50.807Z,65.2
2017-11-22T00:15:07.066Z,64.9
2017-11-22T00:15:23.110Z,65
2017-11-22T00:15:39.215Z,64.9
2017-11-22T00:16:05.875Z,65.4
2017-11-22T00:16:22.837Z,65.5
2017-11-22T00:16:38.919Z,65.3
2017-11-22T00:16:55.098Z,65.3
2017-11-22T00:17:11.222Z,65.6
2017-11-22T00:17:27.379Z,65.6
2017-11-22T00:17:43.505Z,65.6
2017-11-22T00:17:59.839Z,65.5
2017-11-22T00:18:15.856Z,65.4
2017-11-22T00:18:32.083Z,65.5
2017-11-22T00:18:48.182Z,65.3
2017-11-22T00:19:04.245Z,65.5
2017-11-22T00:19:20.458Z,65.3
2017-11-22T00:19:36.611Z,65.2
2017-11-22T00:19:52.819Z,64.9
2017-11-22T00:20:08.886Z,65.2
2017-11-22T00:20:25.126Z,64.8
2017-11-22T00:20:41.278Z,64.9
2017-11-22T00:20:57.417Z,65.1
2017-11-22T00:21:13.560Z,65.1
2017-11-22T00:21:30.764Z,64.8
2017-11-22T00:21:47.458Z,64.7
2017-11-22T00:22:03.605Z,64.7
2017-11-22T00:22:19.764Z,64.7
2017-11-22T00:22:35.834Z,64.9
2017-11-22T00:22:55.239Z,64.7
2017-11-22T00:23:11.419Z,64.7
2017-11-22T00:23:28.574Z,64.9
2017-11-22T00:23:45.364Z,64.9
2017-11-22T00:24:01.485Z,64.9
2017-11-22T00:24:17.645Z,64.6
2017-11-22T00:24:33.728Z,64.9
2017-11-22T00:24:49.957Z,64.9
2017-11-22T00:25:06.082Z,64.9
2017-11-22T00:25:22.184Z,64.9
2017-11-22T00:25:38.368Z,64.9
2017-11-22T00:25:55.521Z,64.9
2017-11-22T00:26:12.416Z,64.9
2017-11-22T00:26:28.493Z,64.9
2017-11-22T00:26:44.572Z,64.9
2017-11-22T00:27:00.752Z,64.7
2017-11-22T00:27:16.863Z,64.9
2017-11-22T00:27:33.058Z,64.9
2017-11-22T00:27:49.361Z,65
2017-11-22T00:28:05.336Z,64.7
2017-11-22T00:28:21.511Z,64.7
2017-11-22T00:28:37.626Z,64.9
2017-11-22T00:28:53.806Z,64.9
2017-11-22T00:29:09.954Z,64.9
2017-11-22T00:29:26.147Z,65
2017-11-22T00:29:42.262Z,65
2017-11-22T00:29:54.367Z,65.1
2017-11-22T00:30:09.748Z,64.9
2017-11-22T00:30:25.939Z,64.8
2017-11-22T00:30:42.090Z,64.9
2017-11-22T00:30:58.249Z,64.6
2017-11-22T00:31:14.421Z,64.9
2017-11-22T00:31:30.558Z,64.9
2017-11-22T00:31:46.732Z,64.7
2017-11-22T00:32:02.854Z,64.7
2017-11-22T00:32:19.037Z,64.9
2017-11-22T00:32:35.180Z,64.9
2017-11-22T00:32:51.346Z,64.9
2017-11-22T00:33:07.438Z,65.2
2017-11-22T00:33:23.650Z,64.9
2017-11-22T00:33:39.752Z,65
2017-11-22T00:33:55.902Z,64.9
2017-11-22T00:34:12.092Z,64.9
2017-11-22T00:34:28.208Z,64.9
2017-11-22T00:34:44.421Z,65
2017-11-22T00:35:00.542Z,65.2
2017-11-22T00:35:16.746Z,64.8
2017-11-22T00:35:32.855Z,64.9
2017-11-22T00:35:48.978Z,64.9
2017-11-22T00:36:05.145Z,64.9
2017-11-22T00:36:21.369Z,65.2
2017-11-22T00:36:37.487Z,64.8
2017-11-22T00:37:03.555Z,64.5
2017-11-22T00:37:19.374Z,64.5
2017-11-22T00:37:35.559Z,64.7
2017-11-22T00:37:51.727Z,64.8
2017-11-22T00:38:07.834Z,64.8
2017-11-22T00:38:23.974Z,64.5
2017-11-22T00:38:40.145Z,64.5
2017-11-22T00:38:56.296Z,64.8
2017-11-22T00:39:12.422Z,64.1
2017-11-22T00:39:28.607Z,64.2
2017-11-22T00:39:44.785Z,64.6
2017-11-22T00:40:00.903Z,64.5
2017-11-22T00:40:17.041Z,64.8
2017-11-22T00:40:33.219Z,64.6
2017-11-22T00:40:49.399Z,64.8
2017-11-22T00:41:05.524Z,64.5
2017-11-22T00:41:21.661Z,64.3
2017-11-22T00:41:37.900Z,64.3
2017-11-22T00:41:53.958Z,63.6
2017-11-22T00:42:10.096Z,63.6
2017-11-22T00:42:26.244Z,64.4
2017-11-22T00:42:42.427Z,64.2
2017-11-22T00:42:58.637Z,63.9
2017-11-22T00:43:14.761Z,64.2
2017-11-22T00:43:30.900Z,64.5
2017-11-22T00:43:47.101Z,64.4
2017-11-22T00:44:03.168Z,64.4
2017-11-22T00:44:19.385Z,64.6
2017-11-22T00:44:35.525Z,64.8
2017-11-22T00:44:51.681Z,64.8
2017-11-22T00:45:07.859Z,64.9
2017-11-22T00:45:23.991Z,65.1
2017-11-22T00:45:40.115Z,65.1
2017-11-22T00:45:56.274Z,65.1
2017-11-22T00:46:12.451Z,64.6
2017-11-22T00:46:28.595Z,64.7
2017-11-22T00:46:44.776Z,64.8
2017-11-22T00:47:00.963Z,65
2017-11-22T00:47:17.171Z,64.9
2017-11-22T00:47:33.196Z,64.9
2017-11-22T00:47:49.397Z,64.9
2017-11-22T00:48:05.476Z,64.9
2017-11-22T00:48:21.676Z,64.7
2017-11-22T00:48:37.776Z,64.8
2017-11-22T00:48:53.934Z,65.1
2017-11-22T00:49:10.138Z,65
2017-11-22T00:49:26.343Z,64.8
2017-11-22T00:49:42.506Z,64.7
2017-11-22T00:49:58.604Z,64.7
2017-11-22T00:50:14.735Z,64.5
2017-11-22T00:50:30.942Z,64.6
2017-11-22T00:50:47.008Z,64.5
2017-11-22T00:51:03.190Z,64.6
2017-11-22T00:51:19.333Z,64.7
2017-11-22T00:51:35.487Z,64.7
2017-11-22T00:51:51.658Z,64.5
2017-11-22T00:52:07.835Z,64.5
2017-11-22T00:52:24.026Z,64.8
2017-11-22T00:52:40.194Z,64.6
2017-11-22T00:52:56.315Z,64.6
2017-11-22T00:53:12.388Z,64.8
2017-11-22T00:53:28.671Z,64.6
2017-11-22T00:53:44.757Z,64.3
2017-11-22T00:54:10.837Z,64.6
2017-11-22T00:54:26.635Z,64.3
2017-11-22T00:54:42.775Z,64.4
2017-11-22T00:54:58.916Z,64.6
2017-11-22T00:55:15.131Z,64.6
2017-11-22T00:55:31.261Z,64.9
2017-11-22T00:55:47.485Z,64.6
2017-11-22T00:56:03.547Z,64.4
2017-11-22T00:56:19.714Z,64.1
2017-11-22T00:56:35.863Z,63.5
2017-11-22T00:56:52.101Z,64.6
2017-11-22T00:57:08.192Z,64.1
2017-11-22T00:57:24.324Z,64.2
2017-11-22T00:57:40.487Z,64.4
2017-11-22T00:57:56.662Z,64.5
2017-11-22T00:58:12.825Z,64.5
2017-11-22T00:58:28.947Z,64.4
2017-11-22T00:58:45.126Z,64.3
2017-11-22T00:59:01.273Z,64.1
2017-11-22T00:59:17.403Z,63.9
2017-11-22T00:59:33.588Z,63.8
2017-11-22T00:59:49.693Z,64.1
2017-11-22T01:00:05.812Z,64.4
2017-11-22T01:00:22.012Z,64.5
2017-11-22T01:00:38.099Z,64.6
2017-11-22T01:00:54.284Z,63.7
2017-11-22T01:01:10.462Z,63.9
2017-11-22T01:01:26.645Z,63.9
2017-11-22T01:01:42.774Z,64.1
2017-11-22T01:01:59.072Z,64
2017-11-22T01:02:15.081Z,63.9
2017-11-22T01:02:31.227Z,63.9
2017-11-22T01:02:47.382Z,63.8
2017-11-22T01:03:03.551Z,63.9
2017-11-22T01:03:19.681Z,63.8
2017-11-22T01:03:35.831Z,63.7
2017-11-22T01:03:52.000Z,64
2017-11-22T01:04:08.134Z,63.9
2017-11-22T01:04:24.281Z,63.9
2017-11-22T01:04:40.497Z,63.9
2017-11-22T01:04:56.639Z,64.4
2017-11-22T01:05:12.823Z,63.7
2017-11-22T01:05:28.929Z,64.6
2017-11-22T01:05:45.055Z,64.4
2017-11-22T01:06:01.267Z,64.4
2017-11-22T01:06:17.396Z,64.4
2017-11-22T01:06:33.538Z,64.7
2017-11-22T01:06:49.639Z,64.4
2017-11-22T01:07:05.932Z,64.5
2017-11-22T01:07:22.024Z,64.5
2017-11-22T01:07:38.163Z,64.2
2017-11-22T01:07:54.279Z,64.6
2017-11-22T01:08:20.396Z,64.4
2017-11-22T01:08:36.205Z,64.5
2017-11-22T01:08:52.382Z,64.5
2017-11-22T01:09:08.506Z,63.8
2017-11-22T01:09:24.700Z,64
2017-11-22T01:09:40.844Z,63.9
2017-11-22T01:09:56.976Z,64.2
2017-11-22T01:10:13.119Z,64
2017-11-22T01:10:29.293Z,64.1
2017-11-22T01:10:45.409Z,64.3
2017-11-22T01:11:01.568Z,64.3
2017-11-22T01:11:17.739Z,64.2
2017-11-22T01:11:33.845Z,64.6
2017-11-22T01:11:50.136Z,64.4
2017-11-22T01:12:06.212Z,64.4
2017-11-22T01:12:22.360Z,64.6
2017-11-22T01:12:38.482Z,64.6
2017-11-22T01:12:54.690Z,64.3
2017-11-22T01:13:10.861Z,64.7
2017-11-22T01:13:26.940Z,64.5
2017-11-22T01:13:43.119Z,64.3
2017-11-22T01:13:59.265Z,64.7
2017-11-22T01:14:15.451Z,64.6
2017-11-22T01:14:31.573Z,64
2017-11-22T01:14:47.730Z,64.5
2017-11-22T01:15:03.867Z,64.3
2017-11-22T01:15:19.994Z,64.6
2017-11-22T01:15:36.200Z,64.8
2017-11-22T01:15:52.366Z,64.3
2017-11-22T01:16:08.544Z,64.5
2017-11-22T01:16:26.241Z,64.6
2017-11-22T01:16:42.389Z,64.3
2017-11-22T01:16:58.524Z,64.6
2017-11-22T01:17:14.721Z,64.6
2017-11-22T01:17:30.881Z,64.6
2017-11-22T01:17:47.001Z,64.4
2017-11-22T01:18:03.164Z,63.6
2017-11-22T01:18:19.321Z,64.5
2017-11-22T01:18:35.465Z,64.7
2017-11-22T01:18:51.650Z,64.6
2017-11-22T01:19:07.820Z,64.5
2017-11-22T01:19:23.977Z,64.7
2017-11-22T01:19:40.080Z,64.6
2017-11-22T01:19:56.276Z,64.4
2017-11-22T01:20:12.386Z,64.5
2017-11-22T01:20:28.523Z,64.5
2017-11-22T01:20:44.718Z,64.5
2017-11-22T01:21:00.886Z,64.6
2017-11-22T01:21:17.051Z,64.4
2017-11-22T01:21:33.162Z,64.2
2017-11-22T01:21:49.318Z,64.4
2017-11-22T01:22:05.495Z,64.3
2017-11-22T01:22:21.645Z,64.4
2017-11-22T01:22:37.818Z,64.6
2017-11-22T01:22:53.952Z,64.5
2017-11-22T01:23:10.076Z,64.5
2017-11-22T01:23:26.236Z,64.2
2017-11-22T01:23:42.368Z,64.4
2017-11-22T01:23:58.520Z,64.4
2017-11-22T01:24:15.195Z,64.7
2017-11-22T01:24:31.411Z,64.5
2017-11-22T01:24:47.023Z,64.3
2017-11-22T01:25:03.151Z,64.4
2017-11-22T01:25:19.289Z,64.7
2017-11-22T01:25:35.482Z,64.4
2017-11-22T01:25:51.620Z,64.8
2017-11-22T01:26:07.741Z,64.5
2017-11-22T01:26:23.948Z,64.6
2017-11-22T01:26:40.105Z,64.8
2017-11-22T01:26:56.284Z,64.7
2017-11-22T01:27:12.410Z,64.9
2017-11-22T01:27:28.542Z,64.5
2017-11-22T01:27:44.743Z,64.6
2017-11-22T01:28:00.991Z,64.5
2017-11-22T01:28:16.976Z,64.8
2017-11-22T01:28:33.113Z,64.9
2017-11-22T01:28:49.282Z,64.8
2017-11-22T01:29:05.463Z,64.8
2017-11-22T01:29:21.585Z,64.5
2017-11-22T01:29:37.775Z,64.4
2017-11-22T01:29:53.892Z,64.4
2017-11-22T01:30:10.106Z,64.3
2017-11-22T01:30:26.227Z,64.5
2017-11-22T01:30:42.366Z,64.6
2017-11-22T01:30:58.568Z,64.6
2017-11-22T01:31:14.638Z,64.6
2017-11-22T01:31:30.883Z,64.6
2017-11-22T01:31:47.020Z,64.8
2017-11-22T01:32:03.148Z,64.8
2017-11-22T01:32:19.309Z,64.8
2017-11-22T01:32:35.551Z,64.6
2017-11-22T01:32:52.198Z,64.6
2017-11-22T01:33:07.744Z,64.7
2017-11-22T01:33:23.978Z,64.8
2017-11-22T01:33:40.044Z,64.6
2017-11-22T01:33:56.224Z,64.5
2017-11-22T01:34:12.384Z,64.4
2017-11-22T01:39:15.946Z,64.4
2017-11-22T01:39:32.864Z,64.5
2017-11-22T01:39:50.462Z,64.6
2017-11-22T01:40:06.642Z,64.4
2017-11-22T01:40:22.893Z,64.9
2017-11-22T01:40:38.893Z,64.9
2017-11-22T01:40:55.132Z,64.6
2017-11-22T01:41:11.275Z,64.6
2017-11-22T01:41:27.570Z,64.5
2017-11-22T01:41:39.650Z,64.4
2017-11-22T01:41:56.587Z,64.5
2017-11-22T01:42:14.654Z,64.2
2017-11-22T01:42:30.363Z,64.6
2017-11-22T01:43:17.139Z,64.7
2017-11-22T01:43:33.220Z,64.7
2017-11-22T01:43:49.391Z,64.9
2017-11-22T01:44:05.528Z,64.8
2017-11-22T01:44:21.670Z,64.9
2017-11-22T01:44:37.849Z,64.5
2017-11-22T01:44:53.993Z,64.9
2017-11-22T01:45:10.185Z,64.6
2017-11-22T01:45:26.332Z,64.7
2017-11-22T01:45:42.512Z,64.7
2017-11-22T01:45:59.640Z,64.9
2017-11-22T01:46:16.400Z,64.7
2017-11-22T01:46:32.532Z,64.7
2017-11-22T01:46:48.662Z,64.9
2017-11-22T01:47:04.841Z,64.8
2017-11-22T01:47:20.977Z,65.2
2017-11-22T01:47:47.126Z,65.1
2017-11-22T01:48:02.944Z,64.9
2017-11-22T01:48:19.105Z,64.9
2017-11-22T01:48:35.253Z,64.7
2017-11-22T01:48:51.388Z,65.1
2017-11-22T01:49:10.150Z,64.9
2017-11-22T01:49:26.920Z,64.8
2017-11-22T01:49:42.996Z,65.1
2017-11-22T01:49:59.208Z,64.8
2017-11-22T01:50:15.415Z,65.1
2017-11-22T01:50:31.510Z,64.9
2017-11-22T01:50:47.661Z,65.2
2017-11-22T01:51:04.328Z,65.4
2017-11-22T01:51:19.956Z,65.3
2017-11-22T01:51:36.116Z,65.5
2017-11-22T01:51:52.250Z,65.4
2017-11-22T01:52:08.416Z,65.4
2017-11-22T01:52:24.529Z,65.3
2017-11-22T01:52:40.740Z,65.6
2017-11-22T01:52:56.915Z,65.5
2017-11-22T01:53:13.089Z,65.6
2017-11-22T01:54:10.961Z,65.4
2017-11-22T01:54:27.133Z,65.2
2017-11-22T01:54:43.316Z,65.4
2017-11-22T01:54:59.387Z,64.8
2017-11-22T01:55:15.585Z,64.9
2017-11-22T01:55:55.185Z,65.4
2017-11-22T01:56:08.028Z,65.5
2017-11-22T01:56:21.003Z,65.5
2017-11-22T01:56:37.891Z,65.5
2017-11-22T01:56:54.028Z,65.3
2017-11-22T01:57:10.253Z,64.9
2017-11-22T01:57:26.391Z,65.4
2017-11-22T01:57:42.510Z,65
2017-11-22T01:57:58.668Z,65.2
2017-11-22T01:58:14.821Z,65.4
2017-11-22T01:58:31.143Z,65.4
2017-11-22T01:58:47.331Z,65.6
2017-11-22T01:59:03.254Z,65.3
2017-11-22T01:59:19.436Z,64.8
2017-11-22T01:59:35.590Z,65
2017-11-22T01:59:51.764Z,64.9
2017-11-22T02:00:08.922Z,65.2
2017-11-22T02:00:41.184Z,65.3
2017-11-22T02:00:58.844Z,65.6
2017-11-22T02:01:24.125Z,65.4
2017-11-22T02:01:39.732Z,65.2
2017-11-22T02:01:57.462Z,65
2017-11-22T02:02:13.703Z,64.8
2017-11-22T02:02:34.043Z,65
2017-11-22T02:02:50.740Z,64.8
2017-11-22T02:03:06.888Z,65.1
2017-11-22T02:03:23.200Z,64.9
2017-11-22T02:03:39.206Z,65.2
2017-11-22T02:03:55.387Z,65
2017-11-22T02:04:11.546Z,64.9
2017-11-22T02:04:27.658Z,64.8
2017-11-22T02:04:43.837Z,64.8
2017-11-22T02:05:00.034Z,64.9
2017-11-22T02:05:16.142Z,64.9
2017-11-22T02:05:40.283Z,65
2017-11-22T02:06:04.464Z,65.2
2017-11-22T02:06:21.598Z,64.8
2017-11-22T02:06:38.384Z,65
2017-11-22T02:06:54.505Z,65.3
2017-11-22T02:07:10.674Z,64.9
2017-11-22T02:07:26.782Z,64.8
2017-11-22T02:07:42.990Z,65
2017-11-22T02:07:59.205Z,65.3
2017-11-22T02:08:24.462Z,64.9
2017-11-22T02:08:41.712Z,64.8
2017-11-22T02:08:58.773Z,65.2
2017-11-22T02:09:32.429Z,64.9
2017-11-22T02:09:44.611Z,65
2017-11-22T02:09:57.643Z,65.1
2017-11-22T02:10:15.192Z,64.8
2017-11-22T02:10:30.744Z,64.9
2017-11-22T02:10:46.933Z,64.9
2017-11-22T02:11:02.997Z,64.9
2017-11-22T02:11:15.140Z,64.8
2017-11-22T02:11:30.524Z,64.9
2017-11-22T02:11:46.736Z,64.7
2017-11-22T02:11:58.840Z,64.9
2017-11-22T02:12:15.783Z,64.6
2017-11-22T02:12:27.921Z,64.8
2017-11-22T02:12:40.927Z,64.7
2017-11-22T02:13:25.258Z,64.9
2017-11-22T02:13:49.327Z,64.8
2017-11-22T02:14:05.526Z,64.8
2017-11-22T02:14:21.693Z,65.2
2017-11-22T02:14:37.883Z,64.8
2017-11-22T02:14:53.975Z,65.1
2017-11-22T02:15:10.087Z,65.1
2017-11-22T02:15:26.316Z,65
2017-11-22T02:15:42.473Z,65
2017-11-22T02:16:42.990Z,65
2017-11-22T02:16:59.631Z,64.8
2017-11-22T02:17:15.809Z,64.8
2017-11-22T02:17:31.989Z,64.7
2017-11-22T02:17:48.170Z,64.7
2017-11-22T02:18:04.444Z,64.5
2017-11-22T02:18:33.911Z,65.1
2017-11-22T02:18:49.415Z,64.8
2017-11-22T02:19:05.547Z,64.9
2017-11-22T02:19:21.684Z,64.9
2017-11-22T02:19:37.849Z,64.5
2017-11-22T02:19:53.983Z,64.6
2017-11-22T02:20:12.198Z,64.7
2017-11-22T02:21:03.606Z,64.6
2017-11-22T02:21:19.448Z,65.1
2017-11-22T02:21:35.575Z,64.8
2017-11-22T02:21:51.804Z,64.5
2017-11-22T02:22:07.834Z,64.5
2017-11-22T02:22:24.068Z,64.5
2017-11-22T02:22:40.164Z,64.9
2017-11-22T02:22:56.303Z,64.4
2017-11-22T02:23:12.444Z,64.5
2017-11-22T02:23:28.812Z,64.8
2017-11-22T02:23:44.825Z,65
2017-11-22T02:24:01.930Z,64.9
2017-11-22T02:24:18.679Z,64.9
2017-11-22T02:24:34.882Z,64.9
2017-11-22T02:24:50.955Z,64.8
2017-11-22T02:25:07.131Z,64.9
2017-11-22T02:25:23.313Z,65
2017-11-22T02:25:39.452Z,64.9
2017-11-22T02:25:55.584Z,64.9
2017-11-22T02:26:11.771Z,65.3
2017-11-22T02:26:27.882Z,65.2
2017-11-22T02:26:44.050Z,65.2
2017-11-22T02:27:00.267Z,64.9
2017-11-22T02:27:26.389Z,64.5
2017-11-22T02:27:42.119Z,64.9
2017-11-22T02:27:58.283Z,64.9
2017-11-22T02:28:14.440Z,64.8
2017-11-22T02:29:11.034Z,64.8
2017-11-22T02:29:22.910Z,64.5
2017-11-22T02:29:36.020Z,64.6
2017-11-22T02:29:48.792Z,64.2
2017-11-22T02:30:01.753Z,64.7
2017-11-22T02:30:14.699Z,64.6
2017-11-22T02:30:27.706Z,64.7
2017-11-22T02:30:38.984Z,64.5
2017-11-22T02:30:55.954Z,64.5
2017-11-22T02:31:12.118Z,64.6
2017-11-22T02:31:24.465Z,64.5
2017-11-22T02:31:38.213Z,64.6
2017-11-22T02:31:50.296Z,64.6
2017-11-22T02:32:03.169Z,64.8
2017-11-22T02:32:16.100Z,64.5
2017-11-22T02:32:29.083Z,64.8
2017-11-22T02:32:42.013Z,64.5
2017-11-22T02:32:57.371Z,64.7
2017-11-22T02:33:13.523Z,64.8
2017-11-22T02:33:29.639Z,64.5
2017-11-22T02:33:45.774Z,64.2
2017-11-22T02:33:57.969Z,64.5
2017-11-22T02:34:11.019Z,64.4
2017-11-22T02:34:23.910Z,64.6
2017-11-22T02:34:40.813Z,64.6
2017-11-22T02:34:53.051Z,64.4
2017-11-22T02:35:05.952Z,64.9
2017-11-22T02:35:22.875Z,64.4
2017-11-22T02:35:48.989Z,64.7
2017-11-22T02:36:00.812Z,64.7
2017-11-22T02:36:13.779Z,64.4
2017-11-22T02:36:27.717Z,64.7
2017-11-22T02:36:43.643Z,64.7
2017-11-22T02:36:59.850Z,64.4
2017-11-22T02:37:11.934Z,64.5
2017-11-22T02:37:23.345Z,64.4
2017-11-22T02:37:40.346Z,64.6
2017-11-22T02:37:52.459Z,64.6
2017-11-22T02:38:09.435Z,64.8
2017-11-22T02:38:21.655Z,64.7
2017-11-22T02:38:34.522Z,64.4
2017-11-22T02:38:47.496Z,64.6
2017-11-22T02:39:00.427Z,64.7
2017-11-22T02:39:44.761Z,64.3
2017-11-22T02:40:00.909Z,63.9
2017-11-22T02:40:17.043Z,64.2
2017-11-22T02:40:33.222Z,64.4
2017-11-22T02:40:49.351Z,64.5
2017-11-22T02:41:05.479Z,64.1
2017-11-22T02:41:21.631Z,64.6
2017-11-22T02:41:39.582Z,64.7
2017-11-22T02:42:06.391Z,64.5
2017-11-22T02:42:23.226Z,64.3
2017-11-22T02:42:39.133Z,64.5
2017-11-22T02:42:55.304Z,64.6
2017-11-22T02:43:11.435Z,64.5
2017-11-22T02:43:28.865Z,64.7
2017-11-22T02:43:45.300Z,64.5
2017-11-22T02:44:01.435Z,64.6
2017-11-22T02:44:13.611Z,64.9
2017-11-22T02:44:26.541Z,64.6
2017-11-22T02:44:43.490Z,64.4
2017-11-22T02:44:59.668Z,64.1
2017-11-22T02:45:26.296Z,64.3
2017-11-22T02:45:43.133Z,64.5
2017-11-22T02:45:59.253Z,64.5
2017-11-22T02:46:11.463Z,64.6
2017-11-22T02:46:28.420Z,64.3
2017-11-22T02:46:44.568Z,64.5
2017-11-22T02:47:00.711Z,64.4
2017-11-22T02:47:16.888Z,64.3
2017-11-22T02:47:33.025Z,64.3
2017-11-22T02:47:49.175Z,64.4
2017-11-22T02:48:01.331Z,64.7
2017-11-22T02:48:18.272Z,64.7
2017-11-22T02:48:34.454Z,64.7
2017-11-22T02:48:46.616Z,64.4
2017-11-22T02:49:03.595Z,64.3
2017-11-22T02:49:19.749Z,64.2
2017-11-22T02:49:31.885Z,64.3
2017-11-22T02:49:44.803Z,64.1
2017-11-22T02:49:57.783Z,64.1
2017-11-22T02:50:10.710Z,64.4
2017-11-22T02:50:27.708Z,64.3
2017-11-22T02:50:39.852Z,64.1
2017-11-22T02:50:56.767Z,64.6
2017-11-22T02:51:16.121Z,64.6
2017-11-22T02:51:32.326Z,64.6
2017-11-22T02:51:48.400Z,64.8
2017-11-22T02:52:04.611Z,64.5
2017-11-22T02:52:20.760Z,64.7
2017-11-22T02:52:36.899Z,64.7
2017-11-22T02:52:49.031Z,65.1
2017-11-22T02:53:02.003Z,65
2017-11-22T02:53:14.928Z,65.1
2017-11-22T02:53:31.854Z,65.3
2017-11-22T02:53:48.060Z,65.1
2017-11-22T02:54:00.192Z,64.9
2017-11-22T02:54:17.220Z,64.9
2017-11-22T02:54:33.289Z,64.5
2017-11-22T02:54:49.444Z,64.8
2017-11-22T02:55:01.634Z,64.8
2017-11-22T02:55:19.571Z,64.2
2017-11-22T02:55:36.297Z,64.3
2017-11-22T02:55:52.503Z,64.6
2017-11-22T02:56:08.660Z,64.6
2017-11-22T02:56:24.784Z,64.2
2017-11-22T02:56:36.941Z,64.5
2017-11-22T02:56:53.892Z,64.5
2017-11-22T02:57:10.020Z,64.6
2017-11-22T02:57:22.202Z,64.4
2017-11-22T02:57:39.201Z,64.4
2017-11-22T02:57:55.308Z,64.5
2017-11-22T02:58:07.466Z,64.4
2017-11-22T02:58:24.410Z,64.1
2017-11-22T02:58:40.594Z,64.4
2017-11-22T02:58:56.769Z,64.3
2017-11-22T02:59:12.872Z,64.6
2017-11-22T02:59:29.045Z,64.6
2017-11-22T02:59:45.200Z,64
2017-11-22T02:59:57.338Z,64
2017-11-22T03:00:30.307Z,64.2
2017-11-22T03:01:24.193Z,64.3
2017-11-22T03:01:41.163Z,64.6
2017-11-22T03:01:57.395Z,64.5
2017-11-22T03:02:13.478Z,64.3
2017-11-22T03:02:29.686Z,63.6
2017-11-22T03:02:45.777Z,64.1
2017-11-22T03:03:01.921Z,64.1
2017-11-22T03:03:33.571Z,63.9
2017-11-22T03:03:50.250Z,64
2017-11-22T03:04:06.421Z,64.3
2017-11-22T03:04:22.531Z,64.1
2017-11-22T03:04:38.679Z,64.2
2017-11-22T03:04:54.801Z,64.4
2017-11-22T03:05:11.026Z,64.2
2017-11-22T03:05:23.180Z,64.4
2017-11-22T03:05:40.102Z,64.1
2017-11-22T03:06:28.765Z,63.9
2017-11-22T03:06:40.418Z,64.2
2017-11-22T03:06:58.343Z,64
2017-11-22T03:07:15.180Z,64.1
2017-11-22T03:07:31.288Z,64
2017-11-22T03:07:47.434Z,63.7
2017-11-22T03:08:03.562Z,64
2017-11-22T03:08:19.694Z,63.8
2017-11-22T03:08:31.879Z,63.8
2017-11-22T03:08:48.832Z,63.9
2017-11-22T03:09:01.072Z,64.1
2017-11-22T03:09:17.929Z,64
2017-11-22T03:09:30.064Z,64.1
2017-11-22T03:09:47.088Z,64
2017-11-22T03:10:03.161Z,63.9
2017-11-22T03:10:19.349Z,63.7
2017-11-22T03:10:35.509Z,64.1
2017-11-22T03:10:47.685Z,63.9
2017-11-22T03:11:04.612Z,63.9
2017-11-22T03:11:20.790Z,64
2017-11-22T03:11:32.872Z,64
2017-11-22T03:11:49.900Z,64.1
2017-11-22T03:12:02.092Z,64.2
2017-11-22T03:12:15.110Z,63.9
2017-11-22T03:12:32.229Z,64
2017-11-22T03:12:44.114Z,63.9
2017-11-22T03:13:01.113Z,64.1
2017-11-22T03:13:17.165Z,63.9
2017-11-22T03:13:30.425Z,63.8
2017-11-22T03:13:46.298Z,64
2017-11-22T03:13:58.456Z,63.6
2017-11-22T03:14:15.408Z,63.8
2017-11-22T03:14:31.531Z,64
2017-11-22T03:14:43.693Z,63.8
2017-11-22T03:14:56.644Z,63.7
2017-11-22T03:15:09.626Z,63.9
2017-11-22T03:15:22.552Z,64
2017-11-22T03:15:35.509Z,64
2017-11-22T03:15:52.452Z,64.1
2017-11-22T03:16:04.646Z,64.1
2017-11-22T03:16:21.614Z,63.9
2017-11-22T03:16:37.673Z,63.9
2017-11-22T03:16:53.894Z,63.9
2017-11-22T03:17:09.998Z,63.8
2017-11-22T03:17:26.215Z,63.6
2017-11-22T03:17:44.890Z,63.9
2017-11-22T03:18:12.199Z,63.9
2017-11-22T03:18:29.073Z,64
2017-11-22T03:18:45.309Z,64.1
2017-11-22T03:19:24.684Z,63.9
2017-11-22T03:19:37.685Z,64.1
2017-11-22T03:19:50.763Z,64
2017-11-22T03:20:07.560Z,64.1
2017-11-22T03:20:23.758Z,64.4
2017-11-22T03:20:41.480Z,64.6
2017-11-22T03:20:57.670Z,64.2
2017-11-22T03:21:13.792Z,64.6
2017-11-22T03:21:25.922Z,64.6
2017-11-22T03:22:01.227Z,64.8
2017-11-22T03:22:18.364Z,64.4
2017-11-22T03:23:07.205Z,64.7
2017-11-22T03:23:24.200Z,64.7
2017-11-22T03:23:40.399Z,64.4
2017-11-22T03:24:44.713Z,64.3
2017-11-22T03:25:00.867Z,63.9
2017-11-22T03:25:12.908Z,63.9
2017-11-22T03:25:24.261Z,63.9
2017-11-22T03:25:41.241Z,63.9
2017-11-22T03:25:57.392Z,63.9
2017-11-22T03:26:09.549Z,64.2
2017-11-22T03:26:22.506Z,63.9
2017-11-22T03:26:35.433Z,64
2017-11-22T03:26:46.814Z,64
2017-11-22T03:27:00.077Z,63.9
2017-11-22T03:27:12.714Z,64.1
2017-11-22T03:27:25.646Z,64
2017-11-22T03:27:38.528Z,63.8
2017-11-22T03:27:55.565Z,64.3
2017-11-22T03:28:11.723Z,63.6
2017-11-22T03:28:28.883Z,63.9
2017-11-22T03:28:41.605Z,63.9
2017-11-22T03:28:54.650Z,63.9
2017-11-22T03:29:12.514Z,63.9
2017-11-22T03:29:25.308Z,63.9
2017-11-22T03:29:38.264Z,64
2017-11-22T03:29:51.166Z,64.3
2017-11-22T03:30:08.308Z,64
2017-11-22T03:30:20.314Z,64.2
2017-11-22T03:30:37.278Z,64.3
2017-11-22T03:30:49.445Z,64.4
2017-11-22T03:31:06.341Z,64.2
2017-11-22T03:31:22.561Z,64.1
2017-11-22T03:31:38.686Z,64.2
2017-11-22T03:31:54.826Z,63.9
2017-11-22T03:32:10.990Z,64.2
2017-11-22T03:32:27.147Z,64
2017-11-22T03:32:43.272Z,64.1
2017-11-22T03:32:59.403Z,64.1
2017-11-22T03:34:27.489Z,64
2017-11-22T03:34:43.841Z,64.1
2017-11-22T03:35:42.025Z,64.1
2017-11-22T03:36:44.185Z,64.1
2017-11-22T03:37:00.297Z,64
2017-11-22T03:37:16.466Z,64.2
2017-11-22T03:37:32.668Z,64.1
2017-11-22T03:38:03.484Z,63.8
2017-11-22T03:42:13.416Z,63.9
2017-11-22T03:42:25.097Z,64
2017-11-22T03:42:42.025Z,63.9
2017-11-22T03:42:58.240Z,64
2017-11-22T03:43:10.364Z,64.1
2017-11-22T03:43:25.741Z,64
2017-11-22T03:43:37.883Z,64
2017-11-22T03:43:53.245Z,64.1
2017-11-22T03:44:09.342Z,63.9
2017-11-22T03:44:25.566Z,64
2017-11-22T03:44:41.720Z,64
2017-11-22T03:44:53.971Z,64.1
2017-11-22T03:45:10.771Z,64
2017-11-22T03:45:23.052Z,63.8
2017-11-22T03:45:39.877Z,63.9
2017-11-22T03:45:56.095Z,64.1
2017-11-22T03:46:12.237Z,64
2017-11-22T03:46:24.332Z,64.1
2017-11-22T03:46:39.760Z,64.1
2017-11-22T03:46:56.891Z,63.9
2017-11-22T03:47:13.712Z,63.8
2017-11-22T03:47:25.882Z,64.1
2017-11-22T03:47:42.765Z,64.1
2017-11-22T03:47:54.961Z,64
2017-11-22T03:48:11.860Z,63.7
2017-11-22T03:48:28.001Z,64
2017-11-22T03:49:01.300Z,63.8
2017-11-22T03:49:18.019Z,64
2017-11-22T03:49:35.008Z,64
2017-11-22T03:50:04.830Z,63.9
2017-11-22T03:50:20.748Z,63.9
2017-11-22T03:50:36.933Z,63.7
2017-11-22T03:50:53.102Z,63.9
2017-11-22T03:51:05.273Z,63.9
2017-11-22T03:51:22.210Z,63.9
2017-11-22T03:51:38.364Z,63.8
2017-11-22T03:51:54.490Z,63.5
2017-11-22T03:52:10.669Z,63.9
2017-11-22T03:52:26.797Z,64
2017-11-22T03:52:43.001Z,63.9
2017-11-22T03:52:59.105Z,64
2017-11-22T03:53:15.258Z,63.7
2017-11-22T03:53:31.426Z,63.8
2017-11-22T03:53:58.052Z,63.7
2017-11-22T03:54:14.945Z,63.9
2017-11-22T03:54:31.101Z,63.9
2017-11-22T03:54:47.258Z,64.7
2017-11-22T03:55:03.433Z,64.5
2017-11-22T03:55:19.565Z,64.4